sensor_id;sensor_type;location;lat;lon;timestamp;P1;durP1;ratioP1;P2;durP2;ratioP2
84984;SDS011;75299;50.018;20.014;2024-01-10T00:00:12;119.13;;;52.48;;
84984;SDS011;75299;50.018;20.014;2024-01-10T00:03:33;122.03;;;52.35;;
84984;SDS011;75299;50.018;20.014;2024-01-10T00:06:53;118.48;;;51.70;;
84984;SDS011;75299;50.018;20.014;2024-01-10T00:10:13;115.70;;;50.73;;
84984;SDS011;75299;50.018;20.014;2024-01-10T00:13:32;121.63;;;51.60;;
84984;SDS011;75299;50.018;20.014;2024-01-10T00:16:50;124.13;;;54.25;;
84984;SDS011;75299;50.018;20.014;2024-01-10T00:20:08;117.85;;;52.15;;
84984;SDS011;75299;50.018;20.014;2024-01-10T00:23:27;126.15;;;54.28;;
84984;SDS011;75299;50.018;20.014;2024-01-10T00:26:45;118.65;;;53.98;;
84984;SDS011;75299;50.018;20.014;2024-01-10T00:30:04;118.93;;;55.13;;
84984;SDS011;75299;50.018;20.014;2024-01-10T00:33:24;128.90;;;55.88;;
84984;SDS011;75299;50.018;20.014;2024-01-10T00:36:42;133.73;;;56.13;;
84984;SDS011;75299;50.018;20.014;2024-01-10T00:40:00;126.53;;;56.28;;
84984;SDS011;75299;50.018;20.014;2024-01-10T00:43:19;129.40;;;55.38;;
84984;SDS011;75299;50.018;20.014;2024-01-10T00:46:37;129.28;;;55.98;;
84984;SDS011;75299;50.018;20.014;2024-01-10T00:49:55;138.95;;;57.18;;
84984;SDS011;75299;50.018;20.014;2024-01-10T00:53:13;126.75;;;56.13;;
84984;SDS011;75299;50.018;20.014;2024-01-10T00:56:31;128.33;;;57.65;;
84984;SDS011;75299;50.018;20.014;2024-01-10T00:59:48;124.33;;;54.60;;
84984;SDS011;75299;50.018;20.014;2024-01-10T01:03:06;133.15;;;56.58;;
84984;SDS011;75299;50.018;20.014;2024-01-10T01:06:24;123.00;;;57.05;;
84984;SDS011;75299;50.018;20.014;2024-01-10T01:09:42;128.28;;;55.83;;
84984;SDS011;75299;50.018;20.014;2024-01-10T01:13:00;131.60;;;55.60;;
84984;SDS011;75299;50.018;20.014;2024-01-10T01:16:18;140.90;;;59.73;;
84984;SDS011;75299;50.018;20.014;2024-01-10T01:19:37;135.25;;;58.23;;
84984;SDS011;75299;50.018;20.014;2024-01-10T01:22:55;143.55;;;58.90;;
84984;SDS011;75299;50.018;20.014;2024-01-10T01:26:13;138.38;;;57.55;;
84984;SDS011;75299;50.018;20.014;2024-01-10T01:29:31;141.98;;;59.95;;
84984;SDS011;75299;50.018;20.014;2024-01-10T01:32:49;143.33;;;60.78;;
84984;SDS011;75299;50.018;20.014;2024-01-10T01:36:07;150.55;;;60.35;;
84984;SDS011;75299;50.018;20.014;2024-01-10T01:39:25;125.33;;;55.23;;
84984;SDS011;75299;50.018;20.014;2024-01-10T01:42:42;132.98;;;55.78;;
84984;SDS011;75299;50.018;20.014;2024-01-10T01:46:02;127.85;;;53.78;;
84984;SDS011;75299;50.018;20.014;2024-01-10T01:49:20;134.38;;;56.38;;
84984;SDS011;75299;50.018;20.014;2024-01-10T01:52:38;124.58;;;53.43;;
84984;SDS011;75299;50.018;20.014;2024-01-10T01:55:56;119.28;;;51.50;;
84984;SDS011;75299;50.018;20.014;2024-01-10T01:59:14;116.23;;;48.50;;
84984;SDS011;75299;50.018;20.014;2024-01-10T02:02:32;118.38;;;49.50;;
84984;SDS011;75299;50.018;20.014;2024-01-10T02:05:50;121.35;;;53.55;;
84984;SDS011;75299;50.018;20.014;2024-01-10T02:09:08;110.38;;;47.85;;
84984;SDS011;75299;50.018;20.014;2024-01-10T02:12:26;134.80;;;53.60;;
84984;SDS011;75299;50.018;20.014;2024-01-10T02:15:44;121.50;;;51.35;;
84984;SDS011;75299;50.018;20.014;2024-01-10T02:19:02;126.78;;;53.55;;
84984;SDS011;75299;50.018;20.014;2024-01-10T02:22:36;132.73;;;56.55;;
84984;SDS011;75299;50.018;20.014;2024-01-10T02:25:54;126.60;;;55.90;;
84984;SDS011;75299;50.018;20.014;2024-01-10T02:29:12;136.35;;;56.60;;
84984;SDS011;75299;50.018;20.014;2024-01-10T02:32:32;143.83;;;58.50;;
84984;SDS011;75299;50.018;20.014;2024-01-10T02:35:50;126.78;;;55.20;;
84984;SDS011;75299;50.018;20.014;2024-01-10T02:39:08;139.63;;;56.65;;
84984;SDS011;75299;50.018;20.014;2024-01-10T02:42:26;130.98;;;55.43;;
84984;SDS011;75299;50.018;20.014;2024-01-10T02:45:45;136.98;;;57.43;;
84984;SDS011;75299;50.018;20.014;2024-01-10T02:49:03;131.33;;;56.68;;
84984;SDS011;75299;50.018;20.014;2024-01-10T02:52:21;132.48;;;57.48;;
84984;SDS011;75299;50.018;20.014;2024-01-10T02:55:39;139.18;;;57.23;;
84984;SDS011;75299;50.018;20.014;2024-01-10T02:58:58;140.55;;;57.78;;
84984;SDS011;75299;50.018;20.014;2024-01-10T03:02:16;144.53;;;59.38;;
84984;SDS011;75299;50.018;20.014;2024-01-10T03:05:34;151.33;;;63.65;;
84984;SDS011;75299;50.018;20.014;2024-01-10T03:08:52;149.63;;;63.10;;
84984;SDS011;75299;50.018;20.014;2024-01-10T03:12:10;159.83;;;66.53;;
84984;SDS011;75299;50.018;20.014;2024-01-10T03:15:28;146.63;;;62.23;;
84984;SDS011;75299;50.018;20.014;2024-01-10T03:18:46;148.38;;;60.10;;
84984;SDS011;75299;50.018;20.014;2024-01-10T03:22:04;146.40;;;58.85;;
84984;SDS011;75299;50.018;20.014;2024-01-10T03:25:21;144.65;;;62.08;;
84984;SDS011;75299;50.018;20.014;2024-01-10T03:28:39;142.70;;;60.85;;
84984;SDS011;75299;50.018;20.014;2024-01-10T03:31:57;136.33;;;57.55;;
84984;SDS011;75299;50.018;20.014;2024-01-10T03:35:15;139.40;;;59.80;;
84984;SDS011;75299;50.018;20.014;2024-01-10T03:38:33;143.93;;;60.25;;
84984;SDS011;75299;50.018;20.014;2024-01-10T03:41:51;139.25;;;57.18;;
84984;SDS011;75299;50.018;20.014;2024-01-10T03:45:09;138.68;;;56.78;;
84984;SDS011;75299;50.018;20.014;2024-01-10T03:48:30;130.78;;;56.13;;
84984;SDS011;75299;50.018;20.014;2024-01-10T03:51:50;132.28;;;57.38;;
84984;SDS011;75299;50.018;20.014;2024-01-10T03:55:08;146.78;;;59.55;;
84984;SDS011;75299;50.018;20.014;2024-01-10T03:58:26;144.13;;;61.25;;
84984;SDS011;75299;50.018;20.014;2024-01-10T04:01:44;151.58;;;63.30;;
84984;SDS011;75299;50.018;20.014;2024-01-10T04:05:03;154.88;;;62.45;;
84984;SDS011;75299;50.018;20.014;2024-01-10T04:08:24;161.35;;;65.03;;
84984;SDS011;75299;50.018;20.014;2024-01-10T04:11:41;148.63;;;64.80;;
84984;SDS011;75299;50.018;20.014;2024-01-10T04:14:59;146.88;;;63.28;;
84984;SDS011;75299;50.018;20.014;2024-01-10T04:18:18;153.30;;;63.68;;
84984;SDS011;75299;50.018;20.014;2024-01-10T04:21:36;154.70;;;65.23;;
84984;SDS011;75299;50.018;20.014;2024-01-10T04:24:55;159.53;;;64.78;;
84984;SDS011;75299;50.018;20.014;2024-01-10T04:28:14;158.65;;;65.60;;
84984;SDS011;75299;50.018;20.014;2024-01-10T04:31:32;160.50;;;68.10;;
84984;SDS011;75299;50.018;20.014;2024-01-10T04:34:50;228.78;;;103.55;;
84984;SDS011;75299;50.018;20.014;2024-01-10T04:38:07;159.23;;;68.58;;
84984;SDS011;75299;50.018;20.014;2024-01-10T04:41:25;154.03;;;65.73;;
84984;SDS011;75299;50.018;20.014;2024-01-10T04:44:43;157.88;;;64.70;;
84984;SDS011;75299;50.018;20.014;2024-01-10T04:48:01;161.95;;;67.10;;
84984;SDS011;75299;50.018;20.014;2024-01-10T04:51:20;164.95;;;68.38;;
84984;SDS011;75299;50.018;20.014;2024-01-10T04:54:40;156.85;;;66.60;;
84984;SDS011;75299;50.018;20.014;2024-01-10T04:57:58;161.85;;;67.65;;
84984;SDS011;75299;50.018;20.014;2024-01-10T05:01:16;173.30;;;72.43;;
84984;SDS011;75299;50.018;20.014;2024-01-10T05:04:34;164.58;;;70.10;;
84984;SDS011;75299;50.018;20.014;2024-01-10T05:07:52;185.73;;;78.68;;
84984;SDS011;75299;50.018;20.014;2024-01-10T05:11:09;180.03;;;77.65;;
84984;SDS011;75299;50.018;20.014;2024-01-10T05:14:28;180.48;;;77.05;;
84984;SDS011;75299;50.018;20.014;2024-01-10T05:17:45;180.80;;;75.75;;
84984;SDS011;75299;50.018;20.014;2024-01-10T05:21:04;183.30;;;78.33;;
84984;SDS011;75299;50.018;20.014;2024-01-10T05:24:22;178.55;;;75.08;;
84984;SDS011;75299;50.018;20.014;2024-01-10T05:27:41;187.58;;;76.28;;
84984;SDS011;75299;50.018;20.014;2024-01-10T05:30:58;188.43;;;76.63;;
84984;SDS011;75299;50.018;20.014;2024-01-10T05:34:17;194.78;;;76.00;;
84984;SDS011;75299;50.018;20.014;2024-01-10T05:37:35;183.80;;;76.43;;
84984;SDS011;75299;50.018;20.014;2024-01-10T05:40:53;186.10;;;74.73;;
84984;SDS011;75299;50.018;20.014;2024-01-10T05:44:11;182.05;;;74.98;;
84984;SDS011;75299;50.018;20.014;2024-01-10T05:47:29;178.78;;;74.38;;
84984;SDS011;75299;50.018;20.014;2024-01-10T05:50:48;181.30;;;75.28;;
84984;SDS011;75299;50.018;20.014;2024-01-10T05:54:06;169.23;;;73.90;;
84984;SDS011;75299;50.018;20.014;2024-01-10T05:57:26;178.93;;;73.50;;
84984;SDS011;75299;50.018;20.014;2024-01-10T06:00:43;192.58;;;79.15;;
84984;SDS011;75299;50.018;20.014;2024-01-10T06:04:02;176.10;;;75.25;;
84984;SDS011;75299;50.018;20.014;2024-01-10T06:07:19;187.88;;;77.45;;
84984;SDS011;75299;50.018;20.014;2024-01-10T06:10:37;191.90;;;78.20;;
84984;SDS011;75299;50.018;20.014;2024-01-10T06:13:55;194.98;;;80.15;;
84984;SDS011;75299;50.018;20.014;2024-01-10T06:17:16;184.68;;;77.68;;
84984;SDS011;75299;50.018;20.014;2024-01-10T06:20:34;188.93;;;80.73;;
84984;SDS011;75299;50.018;20.014;2024-01-10T06:23:52;189.83;;;77.58;;
84984;SDS011;75299;50.018;20.014;2024-01-10T06:27:11;186.35;;;77.10;;
84984;SDS011;75299;50.018;20.014;2024-01-10T06:30:29;189.43;;;76.30;;
84984;SDS011;75299;50.018;20.014;2024-01-10T06:33:48;197.10;;;79.68;;
84984;SDS011;75299;50.018;20.014;2024-01-10T06:37:06;193.10;;;81.00;;
84984;SDS011;75299;50.018;20.014;2024-01-10T06:40:24;186.75;;;80.55;;
84984;SDS011;75299;50.018;20.014;2024-01-10T06:43:44;212.28;;;81.88;;
84984;SDS011;75299;50.018;20.014;2024-01-10T06:47:02;191.68;;;77.18;;
84984;SDS011;75299;50.018;20.014;2024-01-10T06:50:20;192.50;;;80.88;;
84984;SDS011;75299;50.018;20.014;2024-01-10T06:53:39;189.15;;;79.80;;
84984;SDS011;75299;50.018;20.014;2024-01-10T06:56:57;191.83;;;79.90;;
84984;SDS011;75299;50.018;20.014;2024-01-10T07:00:16;284.53;;;110.23;;
84984;SDS011;75299;50.018;20.014;2024-01-10T07:03:35;202.85;;;83.10;;
84984;SDS011;75299;50.018;20.014;2024-01-10T07:06:54;200.03;;;82.53;;
84984;SDS011;75299;50.018;20.014;2024-01-10T07:10:12;194.48;;;78.93;;
84984;SDS011;75299;50.018;20.014;2024-01-10T07:13:33;179.40;;;76.05;;
84984;SDS011;75299;50.018;20.014;2024-01-10T07:16:51;197.33;;;78.58;;
84984;SDS011;75299;50.018;20.014;2024-01-10T07:20:10;188.65;;;81.65;;
84984;SDS011;75299;50.018;20.014;2024-01-10T07:23:29;181.25;;;76.83;;
84984;SDS011;75299;50.018;20.014;2024-01-10T07:26:48;177.20;;;77.53;;
84984;SDS011;75299;50.018;20.014;2024-01-10T07:30:08;190.00;;;80.68;;
84984;SDS011;75299;50.018;20.014;2024-01-10T07:33:26;169.35;;;75.23;;
84984;SDS011;75299;50.018;20.014;2024-01-10T07:36:44;167.75;;;76.85;;
84984;SDS011;75299;50.018;20.014;2024-01-10T07:40:05;181.35;;;77.23;;
84984;SDS011;75299;50.018;20.014;2024-01-10T07:43:25;176.73;;;74.58;;
84984;SDS011;75299;50.018;20.014;2024-01-10T07:46:43;189.18;;;77.75;;
84984;SDS011;75299;50.018;20.014;2024-01-10T07:50:02;190.33;;;80.85;;
84984;SDS011;75299;50.018;20.014;2024-01-10T07:53:22;196.68;;;83.70;;
84984;SDS011;75299;50.018;20.014;2024-01-10T07:56:40;209.90;;;86.90;;
84984;SDS011;75299;50.018;20.014;2024-01-10T07:59:58;204.05;;;84.98;;
84984;SDS011;75299;50.018;20.014;2024-01-10T08:03:18;196.00;;;85.28;;
84984;SDS011;75299;50.018;20.014;2024-01-10T08:06:36;194.35;;;85.58;;
84984;SDS011;75299;50.018;20.014;2024-01-10T08:09:53;199.15;;;86.78;;
84984;SDS011;75299;50.018;20.014;2024-01-10T08:13:11;204.20;;;90.05;;
84984;SDS011;75299;50.018;20.014;2024-01-10T08:16:29;214.15;;;91.03;;
84984;SDS011;75299;50.018;20.014;2024-01-10T08:19:46;208.83;;;88.78;;
84984;SDS011;75299;50.018;20.014;2024-01-10T08:23:05;245.38;;;102.78;;
84984;SDS011;75299;50.018;20.014;2024-01-10T08:26:22;220.28;;;94.90;;
84984;SDS011;75299;50.018;20.014;2024-01-10T08:29:41;226.45;;;95.50;;
84984;SDS011;75299;50.018;20.014;2024-01-10T08:32:59;207.78;;;91.03;;
84984;SDS011;75299;50.018;20.014;2024-01-10T08:36:17;217.10;;;92.15;;
84984;SDS011;75299;50.018;20.014;2024-01-10T08:39:35;215.98;;;93.60;;
84984;SDS011;75299;50.018;20.014;2024-01-10T08:42:53;223.70;;;98.50;;
84984;SDS011;75299;50.018;20.014;2024-01-10T08:46:11;219.25;;;95.10;;
84984;SDS011;75299;50.018;20.014;2024-01-10T08:49:29;229.80;;;98.73;;
84984;SDS011;75299;50.018;20.014;2024-01-10T08:52:46;214.53;;;97.55;;
84984;SDS011;75299;50.018;20.014;2024-01-10T08:56:05;229.05;;;97.58;;
84984;SDS011;75299;50.018;20.014;2024-01-10T08:59:23;216.38;;;93.75;;
84984;SDS011;75299;50.018;20.014;2024-01-10T09:02:42;233.50;;;98.58;;
84984;SDS011;75299;50.018;20.014;2024-01-10T09:06:00;229.00;;;102.05;;
84984;SDS011;75299;50.018;20.014;2024-01-10T09:09:19;235.95;;;100.30;;
84984;SDS011;75299;50.018;20.014;2024-01-10T09:12:36;220.73;;;99.68;;
84984;SDS011;75299;50.018;20.014;2024-01-10T09:15:55;234.20;;;100.20;;
84984;SDS011;75299;50.018;20.014;2024-01-10T09:19:14;223.70;;;101.45;;
84984;SDS011;75299;50.018;20.014;2024-01-10T09:22:32;230.43;;;103.85;;
84984;SDS011;75299;50.018;20.014;2024-01-10T09:25:50;230.88;;;105.43;;
84984;SDS011;75299;50.018;20.014;2024-01-10T09:29:09;228.03;;;102.13;;
84984;SDS011;75299;50.018;20.014;2024-01-10T09:32:27;229.98;;;103.85;;
84984;SDS011;75299;50.018;20.014;2024-01-10T09:35:45;234.88;;;106.45;;
84984;SDS011;75299;50.018;20.014;2024-01-10T09:39:05;239.25;;;106.00;;
84984;SDS011;75299;50.018;20.014;2024-01-10T09:42:25;249.78;;;112.23;;
84984;SDS011;75299;50.018;20.014;2024-01-10T09:45:44;240.28;;;108.48;;
84984;SDS011;75299;50.018;20.014;2024-01-10T09:49:03;234.03;;;110.18;;
84984;SDS011;75299;50.018;20.014;2024-01-10T09:52:23;239.15;;;109.38;;
84984;SDS011;75299;50.018;20.014;2024-01-10T09:55:46;238.25;;;108.40;;
84984;SDS011;75299;50.018;20.014;2024-01-10T09:59:05;246.68;;;113.58;;
84984;SDS011;75299;50.018;20.014;2024-01-10T10:02:23;239.83;;;112.43;;
84984;SDS011;75299;50.018;20.014;2024-01-10T10:05:41;284.48;;;129.70;;
84984;SDS011;75299;50.018;20.014;2024-01-10T10:08:59;278.43;;;127.98;;
84984;SDS011;75299;50.018;20.014;2024-01-10T10:12:18;246.75;;;118.63;;
84984;SDS011;75299;50.018;20.014;2024-01-10T10:15:36;246.70;;;116.93;;
84984;SDS011;75299;50.018;20.014;2024-01-10T10:18:54;245.60;;;115.35;;
84984;SDS011;75299;50.018;20.014;2024-01-10T10:22:13;249.93;;;118.83;;
84984;SDS011;75299;50.018;20.014;2024-01-10T10:25:32;252.38;;;120.48;;
84984;SDS011;75299;50.018;20.014;2024-01-10T10:28:50;243.55;;;116.93;;
84984;SDS011;75299;50.018;20.014;2024-01-10T10:32:09;253.15;;;119.68;;
84984;SDS011;75299;50.018;20.014;2024-01-10T10:35:26;256.58;;;123.08;;
84984;SDS011;75299;50.018;20.014;2024-01-10T10:38:47;243.15;;;114.95;;
84984;SDS011;75299;50.018;20.014;2024-01-10T10:42:06;241.00;;;113.45;;
84984;SDS011;75299;50.018;20.014;2024-01-10T10:45:25;239.78;;;112.20;;
84984;SDS011;75299;50.018;20.014;2024-01-10T10:48:43;244.13;;;114.83;;
84984;SDS011;75299;50.018;20.014;2024-01-10T10:52:01;239.58;;;111.70;;
84984;SDS011;75299;50.018;20.014;2024-01-10T10:55:20;233.45;;;112.83;;
84984;SDS011;75299;50.018;20.014;2024-01-10T10:58:39;227.35;;;109.85;;
84984;SDS011;75299;50.018;20.014;2024-01-10T11:01:59;234.40;;;109.78;;
84984;SDS011;75299;50.018;20.014;2024-01-10T11:05:17;219.10;;;105.88;;
84984;SDS011;75299;50.018;20.014;2024-01-10T11:08:36;235.85;;;113.50;;
84984;SDS011;75299;50.018;20.014;2024-01-10T11:12:06;224.60;;;111.53;;
84984;SDS011;75299;50.018;20.014;2024-01-10T11:15:43;226.48;;;111.23;;
84984;SDS011;75299;50.018;20.014;2024-01-10T11:19:28;229.98;;;111.68;;
84984;SDS011;75299;50.018;20.014;2024-01-10T11:23:34;220.53;;;107.43;;
84984;SDS011;75299;50.018;20.014;2024-01-10T11:27:07;214.78;;;106.33;;
84984;SDS011;75299;50.018;20.014;2024-01-10T11:30:34;209.43;;;105.83;;
84984;SDS011;75299;50.018;20.014;2024-01-10T11:33:55;211.10;;;106.35;;
84984;SDS011;75299;50.018;20.014;2024-01-10T11:37:13;215.98;;;110.38;;
84984;SDS011;75299;50.018;20.014;2024-01-10T11:48:02;208.58;;;110.13;;
84984;SDS011;75299;50.018;20.014;2024-01-10T11:51:22;207.48;;;110.35;;
84984;SDS011;75299;50.018;20.014;2024-01-10T11:54:44;228.65;;;119.38;;
84984;SDS011;75299;50.018;20.014;2024-01-10T11:58:09;218.18;;;111.50;;
84984;SDS011;75299;50.018;20.014;2024-01-10T12:01:27;215.23;;;111.45;;
84984;SDS011;75299;50.018;20.014;2024-01-10T12:04:45;210.60;;;112.55;;
84984;SDS011;75299;50.018;20.014;2024-01-10T12:08:06;227.90;;;116.68;;
84984;SDS011;75299;50.018;20.014;2024-01-10T12:11:28;228.28;;;114.93;;
84984;SDS011;75299;50.018;20.014;2024-01-10T12:14:47;209.90;;;108.18;;
84984;SDS011;75299;50.018;20.014;2024-01-10T12:18:06;210.88;;;112.95;;
84984;SDS011;75299;50.018;20.014;2024-01-10T12:21:23;231.03;;;116.03;;
84984;SDS011;75299;50.018;20.014;2024-01-10T12:24:44;209.10;;;106.33;;
84984;SDS011;75299;50.018;20.014;2024-01-10T12:28:04;218.38;;;110.45;;
84984;SDS011;75299;50.018;20.014;2024-01-10T12:31:22;239.05;;;119.80;;
84984;SDS011;75299;50.018;20.014;2024-01-10T12:34:41;240.80;;;113.75;;
84984;SDS011;75299;50.018;20.014;2024-01-10T12:38:00;225.10;;;111.45;;
84984;SDS011;75299;50.018;20.014;2024-01-10T12:41:18;223.63;;;111.93;;
84984;SDS011;75299;50.018;20.014;2024-01-10T12:44:36;207.90;;;107.10;;
84984;SDS011;75299;50.018;20.014;2024-01-10T12:47:58;206.73;;;105.90;;
84984;SDS011;75299;50.018;20.014;2024-01-10T12:51:17;216.73;;;110.80;;
84984;SDS011;75299;50.018;20.014;2024-01-10T12:54:35;231.03;;;114.60;;
84984;SDS011;75299;50.018;20.014;2024-01-10T12:57:54;215.08;;;109.03;;
84984;SDS011;75299;50.018;20.014;2024-01-10T13:01:15;226.25;;;115.30;;
84984;SDS011;75299;50.018;20.014;2024-01-10T13:04:33;231.03;;;116.60;;
84984;SDS011;75299;50.018;20.014;2024-01-10T13:07:52;238.85;;;120.60;;
84984;SDS011;75299;50.018;20.014;2024-01-10T13:11:12;232.90;;;116.50;;
84984;SDS011;75299;50.018;20.014;2024-01-10T13:14:30;245.00;;;117.63;;
84984;SDS011;75299;50.018;20.014;2024-01-10T13:17:47;251.40;;;124.15;;
84984;SDS011;75299;50.018;20.014;2024-01-10T13:21:06;244.68;;;121.85;;
84984;SDS011;75299;50.018;20.014;2024-01-10T13:24:23;248.58;;;120.35;;
84984;SDS011;75299;50.018;20.014;2024-01-10T13:27:41;246.15;;;117.50;;
84984;SDS011;75299;50.018;20.014;2024-01-10T13:31:01;262.15;;;121.18;;
84984;SDS011;75299;50.018;20.014;2024-01-10T13:34:19;251.93;;;120.40;;
84984;SDS011;75299;50.018;20.014;2024-01-10T13:37:37;260.08;;;120.00;;
84984;SDS011;75299;50.018;20.014;2024-01-10T13:40:55;246.20;;;121.60;;
84984;SDS011;75299;50.018;20.014;2024-01-10T13:44:13;252.20;;;120.43;;
84984;SDS011;75299;50.018;20.014;2024-01-10T13:47:31;248.58;;;120.93;;
84984;SDS011;75299;50.018;20.014;2024-01-10T13:50:49;244.98;;;121.10;;
84984;SDS011;75299;50.018;20.014;2024-01-10T13:54:07;263.88;;;125.15;;
84984;SDS011;75299;50.018;20.014;2024-01-10T13:57:26;278.05;;;129.05;;
84984;SDS011;75299;50.018;20.014;2024-01-10T14:00:44;269.55;;;129.38;;
84984;SDS011;75299;50.018;20.014;2024-01-10T14:04:02;269.68;;;129.25;;
84984;SDS011;75299;50.018;20.014;2024-01-10T14:07:20;269.55;;;128.18;;
84984;SDS011;75299;50.018;20.014;2024-01-10T14:10:38;271.23;;;130.93;;
84984;SDS011;75299;50.018;20.014;2024-01-10T14:13:56;267.33;;;129.23;;
84984;SDS011;75299;50.018;20.014;2024-01-10T14:17:14;265.13;;;130.10;;
84984;SDS011;75299;50.018;20.014;2024-01-10T14:20:34;268.15;;;129.98;;
84984;SDS011;75299;50.018;20.014;2024-01-10T14:23:54;269.08;;;127.18;;
84984;SDS011;75299;50.018;20.014;2024-01-10T14:27:13;270.80;;;129.93;;
84984;SDS011;75299;50.018;20.014;2024-01-10T14:30:30;282.53;;;132.43;;
84984;SDS011;75299;50.018;20.014;2024-01-10T14:33:49;277.55;;;133.63;;
84984;SDS011;75299;50.018;20.014;2024-01-10T14:37:06;274.03;;;131.35;;
84984;SDS011;75299;50.018;20.014;2024-01-10T14:40:24;280.65;;;133.35;;
84984;SDS011;75299;50.018;20.014;2024-01-10T14:43:42;275.53;;;131.58;;
84984;SDS011;75299;50.018;20.014;2024-01-10T14:47:00;301.70;;;138.60;;
84984;SDS011;75299;50.018;20.014;2024-01-10T14:50:19;285.75;;;135.63;;
84984;SDS011;75299;50.018;20.014;2024-01-10T14:53:37;300.55;;;137.43;;
84984;SDS011;75299;50.018;20.014;2024-01-10T14:56:55;283.23;;;135.23;;
84984;SDS011;75299;50.018;20.014;2024-01-10T15:00:14;278.85;;;136.03;;
84984;SDS011;75299;50.018;20.014;2024-01-10T15:03:36;289.88;;;139.10;;
84984;SDS011;75299;50.018;20.014;2024-01-10T15:06:54;277.73;;;132.83;;
84984;SDS011;75299;50.018;20.014;2024-01-10T15:10:12;280.63;;;135.80;;
84984;SDS011;75299;50.018;20.014;2024-01-10T15:13:30;276.25;;;134.03;;
84984;SDS011;75299;50.018;20.014;2024-01-10T15:16:50;280.10;;;134.10;;
84984;SDS011;75299;50.018;20.014;2024-01-10T15:20:09;286.60;;;132.85;;
84984;SDS011;75299;50.018;20.014;2024-01-10T15:23:28;283.43;;;132.50;;
84984;SDS011;75299;50.018;20.014;2024-01-10T15:26:46;280.73;;;133.75;;
84984;SDS011;75299;50.018;20.014;2024-01-10T15:30:08;287.63;;;135.45;;
84984;SDS011;75299;50.018;20.014;2024-01-10T15:33:31;280.55;;;132.75;;
84984;SDS011;75299;50.018;20.014;2024-01-10T15:36:51;280.58;;;135.13;;
84984;SDS011;75299;50.018;20.014;2024-01-10T15:40:10;282.65;;;131.68;;
84984;SDS011;75299;50.018;20.014;2024-01-10T15:43:29;280.55;;;129.85;;
84984;SDS011;75299;50.018;20.014;2024-01-10T15:46:47;283.48;;;131.13;;
84984;SDS011;75299;50.018;20.014;2024-01-10T15:50:07;272.28;;;128.65;;
84984;SDS011;75299;50.018;20.014;2024-01-10T15:53:26;274.80;;;134.23;;
84984;SDS011;75299;50.018;20.014;2024-01-10T15:56:45;279.95;;;128.03;;
84984;SDS011;75299;50.018;20.014;2024-01-10T16:00:07;278.80;;;130.73;;
84984;SDS011;75299;50.018;20.014;2024-01-10T16:03:27;279.48;;;129.83;;
84984;SDS011;75299;50.018;20.014;2024-01-10T16:06:46;273.48;;;128.70;;
84984;SDS011;75299;50.018;20.014;2024-01-10T16:10:04;259.00;;;123.38;;
84984;SDS011;75299;50.018;20.014;2024-01-10T16:13:27;250.65;;;119.15;;
84984;SDS011;75299;50.018;20.014;2024-01-10T16:16:45;262.88;;;121.75;;
84984;SDS011;75299;50.018;20.014;2024-01-10T16:20:04;244.93;;;118.85;;
84984;SDS011;75299;50.018;20.014;2024-01-10T16:23:24;252.98;;;115.50;;
84984;SDS011;75299;50.018;20.014;2024-01-10T16:26:42;231.35;;;111.03;;
84984;SDS011;75299;50.018;20.014;2024-01-10T16:30:00;220.58;;;103.13;;
84984;SDS011;75299;50.018;20.014;2024-01-10T16:33:20;219.45;;;103.75;;
84984;SDS011;75299;50.018;20.014;2024-01-10T16:36:38;219.95;;;103.50;;
84984;SDS011;75299;50.018;20.014;2024-01-10T16:39:56;222.60;;;107.08;;
84984;SDS011;75299;50.018;20.014;2024-01-10T16:43:15;248.23;;;112.05;;
84984;SDS011;75299;50.018;20.014;2024-01-10T16:46:33;226.03;;;102.73;;
84984;SDS011;75299;50.018;20.014;2024-01-10T16:49:52;210.28;;;101.15;;
84984;SDS011;75299;50.018;20.014;2024-01-10T16:53:10;193.50;;;91.60;;
84984;SDS011;75299;50.018;20.014;2024-01-10T16:56:28;212.38;;;99.63;;
84984;SDS011;75299;50.018;20.014;2024-01-10T16:59:46;214.38;;;97.83;;
84984;SDS011;75299;50.018;20.014;2024-01-10T17:03:05;216.20;;;100.25;;
84984;SDS011;75299;50.018;20.014;2024-01-10T17:06:24;225.45;;;102.08;;
84984;SDS011;75299;50.018;20.014;2024-01-10T17:09:42;218.30;;;99.03;;
84984;SDS011;75299;50.018;20.014;2024-01-10T17:13:02;224.10;;;103.08;;
84984;SDS011;75299;50.018;20.014;2024-01-10T17:16:21;228.73;;;110.68;;
84984;SDS011;75299;50.018;20.014;2024-01-10T17:19:42;239.90;;;112.18;;
84984;SDS011;75299;50.018;20.014;2024-01-10T17:23:01;216.60;;;100.18;;
84984;SDS011;75299;50.018;20.014;2024-01-10T17:26:20;226.88;;;106.30;;
84984;SDS011;75299;50.018;20.014;2024-01-10T17:29:38;225.03;;;106.65;;
84984;SDS011;75299;50.018;20.014;2024-01-10T17:32:56;221.95;;;104.65;;
84984;SDS011;75299;50.018;20.014;2024-01-10T17:36:16;223.08;;;103.33;;
84984;SDS011;75299;50.018;20.014;2024-01-10T17:39:34;225.08;;;104.58;;
84984;SDS011;75299;50.018;20.014;2024-01-10T17:42:52;229.38;;;106.18;;
84984;SDS011;75299;50.018;20.014;2024-01-10T17:46:10;231.70;;;106.88;;
84984;SDS011;75299;50.018;20.014;2024-01-10T17:49:29;216.63;;;106.13;;
84984;SDS011;75299;50.018;20.014;2024-01-10T17:52:47;228.38;;;106.43;;
84984;SDS011;75299;50.018;20.014;2024-01-10T17:56:07;218.95;;;104.03;;
84984;SDS011;75299;50.018;20.014;2024-01-10T17:59:26;214.83;;;100.73;;
84984;SDS011;75299;50.018;20.014;2024-01-10T18:02:45;217.78;;;103.78;;
84984;SDS011;75299;50.018;20.014;2024-01-10T18:06:04;221.08;;;102.75;;
84984;SDS011;75299;50.018;20.014;2024-01-10T18:09:25;225.80;;;102.20;;
84984;SDS011;75299;50.018;20.014;2024-01-10T18:12:43;216.33;;;99.18;;
84984;SDS011;75299;50.018;20.014;2024-01-10T18:16:01;194.98;;;91.85;;
84984;SDS011;75299;50.018;20.014;2024-01-10T18:19:20;200.08;;;90.95;;
84984;SDS011;75299;50.018;20.014;2024-01-10T18:22:38;189.10;;;87.35;;
84984;SDS011;75299;50.018;20.014;2024-01-10T18:25:58;193.10;;;87.78;;
84984;SDS011;75299;50.018;20.014;2024-01-10T18:29:17;193.63;;;88.83;;
84984;SDS011;75299;50.018;20.014;2024-01-10T18:32:36;195.25;;;87.85;;
84984;SDS011;75299;50.018;20.014;2024-01-10T18:35:55;181.10;;;87.08;;
84984;SDS011;75299;50.018;20.014;2024-01-10T18:39:17;173.63;;;82.78;;
84984;SDS011;75299;50.018;20.014;2024-01-10T18:42:35;170.33;;;80.80;;
84984;SDS011;75299;50.018;20.014;2024-01-10T18:45:52;178.68;;;78.85;;
84984;SDS011;75299;50.018;20.014;2024-01-10T18:49:10;176.43;;;80.53;;